Time;durP1;ratioP1;P1;durP2;ratioP2;P2;SDS_P1;SDS_P2;PMS_P1;PMS_P2;Temp;Humidity;BMP_temperature;BMP_pressure;BME280_temperature;BME280_humidity;BME280_pressure;Samples;Min_cycle;Max_cycle;Signal;HPM_P1;HPM_P2
2022/09/04 00:01:53;;;;;;;2.65;1.55;;;18.30;94.90;;;;;;5050530;28;20040;-73
2022/09/04 00:04:42;;;;;;;2.72;1.55;;;18.20;94.80;;;;;;5051350;28;20052;-73
2022/09/04 00:07:13;;;;;;;2.90;1.60;;;18.70;95.00;;;;;;5051770;28;20080;-74
2022/09/04 00:09:52;;;;;;;3.97;1.15;;;18.40;94.30;;;;;;5050561;28;20477;-73
2022/09/04 00:12:30;;;;;;;6.13;2.08;;;18.90;95.00;;;;;;5050335;28;20048;-73
2022/09/04 00:15:20;;;;;;;2.42;1.27;;;18.00;94.20;;;;;;5049962;28;20037;-73
2022/09/04 00:17:59;;;;;;;4.57;1.50;;;18.30;94.90;;;;;;5051419;28;20069;-73
2022/09/04 00:20:41;;;;;;;5.80;1.67;;;18.20;94.40;;;;;;5050239;28;20040;-73
2022/09/04 00:23:17;;;;;;;4.30;1.48;;;18.10;94.30;;;;;;5033608;28;20049;-74
2022/09/04 00:26:01;;;;;;;5.32;1.73;;;17.90;94.20;;;;;;5051081;28;20525;-73
2022/09/04 00:28:48;;;;;;;3.60;1.48;;;17.90;95.00;;;;;;5050244;28;20041;-74
2022/09/04 00:31:35;;;;;;;1.10;1.00;;;19.00;95.30;;;;;;5050342;28;20410;-73
2022/09/04 00:34:21;;;;;;;3.60;1.42;;;18.20;95.10;;;;;;5051941;28;20044;-73
2022/09/04 00:36:51;;;;;;;2.38;1.10;;;18.10;94.80;;;;;;5052883;28;20155;-73
2022/09/04 00:39:32;;;;;;;3.17;1.38;;;17.80;95.20;;;;;;5054831;28;20051;-73
2022/09/04 00:42:04;;;;;;;2.88;1.33;;;18.00;94.90;;;;;;5053787;28;20438;-73
2022/09/04 00:44:57;;;;;;;2.63;1.40;;;17.80;95.00;;;;;;5053289;28;20055;-73
2022/09/04 00:47:50;;;;;;;3.28;1.60;;;17.70;94.70;;;;;;5053348;28;20056;-73
2022/09/04 00:50:25;;;;;;;5.78;1.98;;;17.80;95.10;;;;;;5053518;28;20490;-73
2022/09/04 00:53:29;;;;;;;1.92;1.67;;;17.80;94.80;;;;;;5054706;28;20114;-73
2022/09/04 00:56:21;;;;;;;2.40;1.48;;;17.80;95.00;;;;;;5053161;28;20044;-74
2022/09/04 00:59:07;;;;;;;3.15;1.30;;;17.70;95.10;;;;;;5054216;28;20033;-73
2022/09/04 01:01:33;;;;;;;2.80;1.35;;;17.70;95.20;;;;;;5053382;28;20120;-73
2022/09/04 01:04:33;;;;;;;6.00;1.23;;;17.60;95.60;;;;;;5036388;28;20068;-73
2022/09/04 01:07:26;;;;;;;5.43;1.58;;;17.50;95.80;;;;;;5054465;28;20329;-73
2022/09/04 01:10:19;;;;;;;3.50;1.20;;;17.60;95.30;;;;;;5057901;28;20053;-73
2022/09/04 01:13:13;;;;;;;4.38;1.67;;;17.40;95.50;;;;;;5076734;28;20025;-73
2022/09/04 01:15:53;;;;;;;3.63;1.85;;;17.50;95.40;;;;;;5076613;28;20058;-73
2022/09/04 01:18:57;;;;;;;6.65;1.42;;;17.20;95.40;;;;;;5055566;28;20120;-73
2022/09/04 01:22:03;;;;;;;2.20;1.20;;;17.30;95.90;;;;;;5053020;28;20049;-73
2022/09/04 01:24:47;;;;;;;3.97;1.70;;;17.40;95.90;;;;;;5008909;28;20103;-73
2022/09/04 01:27:21;;;;;;;2.88;1.67;;;17.40;96.60;;;;;;5053928;28;20099;-73
2022/09/04 01:30:05;;;;;;;1.58;1.27;;;17.10;96.10;;;;;;5053741;28;20073;-73
2022/09/04 01:33:00;;;;;;;2.58;1.35;;;17.30;95.90;;;;;;5052415;28;20048;-73
2022/09/04 01:35:46;;;;;;;2.30;1.50;;;17.10;95.50;;;;;;5053524;28;20044;-73
2022/09/04 01:38:32;;;;;;;3.53;1.75;;;17.20;95.60;;;;;;5052508;28;20048;-73
2022/09/04 01:41:12;;;;;;;2.78;1.70;;;17.10;96.20;;;;;;5053949;28;20041;-73
2022/09/04 01:43:38;;;;;;;3.78;1.73;;;17.20;95.90;;;;;;5052502;28;20041;-73
2022/09/04 01:46:08;;;;;;;3.67;1.50;;;17.00;96.30;;;;;;5052888;28;20529;-73
2022/09/04 01:48:40;;;;;;;4.43;1.98;;;17.10;96.40;;;;;;5053459;28;20080;-73
2022/09/04 01:51:33;;;;;;;3.53;1.67;;;16.20;95.60;;;;;;5053715;28;20045;-74
2022/09/04 01:54:14;;;;;;;4.20;1.70;;;16.80;96.50;;;;;;5034455;28;20518;-72
2022/09/04 01:56:47;;;;;;;1.92;1.33;;;17.10;96.10;;;;;;5052068;28;20041;-73
2022/09/04 01:59:28;;;;;;;;;;;16.90;96.00;;;;;;5053535;28;20052;-73
2022/09/04 02:02:09;;;;;;;2.80;1.67;;;16.80;95.80;;;;;;5053395;28;19916;-73
2022/09/04 02:04:58;;;;;;;5.65;1.67;;;16.90;96.90;;;;;;5053150;28;20079;-72
2022/09/04 02:08:02;;;;;;;3.90;1.52;;;18.50;96.50;;;;;;5069805;28;20090;-73
2022/09/04 02:10:33;;;;;;;2.97;1.52;;;17.00;95.80;;;;;;5068655;28;20041;-73
2022/09/04 02:13:25;;;;;;;3.45;1.55;;;17.00;95.70;;;;;;5071836;28;20099;-73
2022/09/04 02:16:21;;;;;;;3.47;1.60;;;16.80;96.40;;;;;;5052863;28;20068;-73
2022/09/04 02:18:57;;;;;;;4.18;1.80;;;16.80;96.00;;;;;;5051683;28;20040;-73
2022/09/04 02:21:35;;;;;;;3.33;1.63;;;16.70;95.80;;;;;;5051904;28;20067;-73
2022/09/04 02:24:27;;;;;;;2.30;1.52;;;16.60;97.30;;;;;;5051294;28;20037;-73
2022/09/04 02:27:19;;;;;;;2.28;1.42;;;16.60;97.40;;;;;;5051564;28;20044;-73
2022/09/04 02:30:07;;;;;;;4.18;1.63;;;16.60;97.20;;;;;;5052897;28;20036;-73
2022/09/04 02:32:38;;;;;;;2.13;1.38;;;16.60;97.30;;;;;;5052550;28;20572;-74
2022/09/04 02:35:22;;;;;;;5.38;1.70;;;16.50;95.90;;;;;;5051251;28;20076;-73
2022/09/04 02:38:03;;;;;;;3.33;1.50;;;16.60;97.20;;;;;;5052578;28;20075;-73
2022/09/04 02:40:54;;;;;;;5.57;2.63;;;16.60;95.80;;;;;;5051320;28;20133;-72
2022/09/04 02:43:46;;;;;;;4.05;2.33;;;16.60;97.40;;;;;;5052826;28;20041;-73
2022/09/04 02:46:18;;;;;;;6.15;1.85;;;16.40;97.40;;;;;;5051135;28;20044;-73
2022/09/04 02:49:20;;;;;;;3.28;1.65;;;16.50;97.30;;;;;;5052481;28;20049;-73
2022/09/04 02:51:52;;;;;;;4.45;2.22;;;16.40;97.50;;;;;;5051236;28;20124;-73
2022/09/04 02:54:45;;;;;;;3.90;1.70;;;17.80;97.10;;;;;;5051261;28;20498;-73
2022/09/04 02:57:26;;;;;;;3.55;1.60;;;16.50;96.50;;;;;;5033799;28;20043;-73
2022/09/04 03:00:23;;;;;;;2.13;1.65;;;16.40;96.30;;;;;;5052360;28;20049;-73
2022/09/04 03:03:04;;;;;;;4.60;1.98;;;16.40;96.40;;;;;;5051270;28;20090;-73
2022/09/04 03:05:40;;;;;;;5.07;2.38;;;16.40;97.70;;;;;;5050607;28;20045;-73
2022/09/04 03:08:18;;;;;;;5.22;1.65;;;16.30;96.90;;;;;;5050712;28;20051;-73
2022/09/04 03:11:01;;;;;;;2.08;1.60;;;16.20;96.60;;;;;;5051183;28;20048;-73
2022/09/04 03:13:31;;;;;;;1.77;1.42;;;16.30;97.10;;;;;;5050768;28;20171;-73
2022/09/04 03:16:08;;;;;;;4.57;1.90;;;16.30;97.10;;;;;;5050568;28;20033;-73
2022/09/04 03:18:51;;;;;;;5.32;1.65;;;16.20;97.00;;;;;;5051646;28;20041;-73
2022/09/04 03:21:24;;;;;;;2.45;1.70;;;15.90;97.40;;;;;;5052202;28;20045;-73
2022/09/04 03:23:49;;;;;;;;;;;16.90;97.30;;;;;;5052260;28;20112;-72
2022/09/04 03:26:26;;;;;;;4.63;1.63;;;16.10;98.20;;;;;;5051795;28;20409;-73
2022/09/04 03:29:01;;;;;;;3.80;1.88;;;16.00;96.80;;;;;;5050587;28;20041;-73
2022/09/04 03:31:48;;;;;;;5.15;1.98;;;16.10;97.00;;;;;;5050916;28;20033;-73
2022/09/04 03:34:31;;;;;;;5.57;2.00;;;16.00;97.20;;;;;;5050387;28;20056;-73
2022/09/04 03:37:11;;;;;;;3.88;1.85;;;16.00;97.20;;;;;;5033949;28;20124;-72
2022/09/04 03:39:57;;;;;;;6.25;1.90;;;16.00;97.30;;;;;;5033954;28;20041;-73
2022/09/04 03:42:37;;;;;;;2.30;1.45;;;15.90;97.40;;;;;;5050558;28;20752;-73
2022/09/04 03:45:20;;;;;;;5.45;2.05;;;16.10;97.60;;;;;;5051612;28;20067;-73
2022/09/04 03:48:06;;;;;;;4.03;1.58;;;15.90;97.60;;;;;;5050865;28;20051;-73
2022/09/04 03:50:57;;;;;;;5.50;2.00;;;15.80;97.90;;;;;;5050934;28;20048;-73
2022/09/04 03:53:34;;;;;;;3.35;1.80;;;15.80;98.00;;;;;;5050978;28;20052;-73
2022/09/04 03:56:27;;;;;;;5.70;2.53;;;15.80;98.00;;;;;;5051898;28;20040;-73
2022/09/04 03:59:35;;;;;;;4.50;2.00;;;15.70;97.90;;;;;;5051345;28;20499;-73
2022/09/04 04:02:19;;;;;;;2.72;1.88;;;15.70;97.70;;;;;;5051105;28;20083;-73
2022/09/04 04:04:51;;;;;;;3.10;1.80;;;15.60;97.70;;;;;;5052014;28;20063;-73
2022/09/04 04:07:37;;;;;;;9.05;2.20;;;15.80;97.70;;;;;;5051763;28;20052;-73
2022/09/04 04:10:15;;;;;;;2.47;1.77;;;15.80;97.80;;;;;;5054402;28;20036;-73
2022/09/04 04:13:03;;;;;;;3.58;1.67;;;15.90;97.90;;;;;;5054153;28;20125;-73
2022/09/04 04:16:07;;;;;;;3.15;1.77;;;15.80;98.30;;;;;;5037215;28;20033;-73
2022/09/04 04:18:55;;;;;;;2.75;1.60;;;16.00;97.90;;;;;;5055199;28;20041;-73
2022/09/04 04:21:54;;;;;;;4.60;2.53;;;15.90;97.70;;;;;;5007860;28;20518;-73
2022/09/04 04:24:38;;;;;;;3.15;2.00;;;16.10;98.40;;;;;;5053512;28;20123;-73
2022/09/04 04:27:38;;;;;;;4.68;1.60;;;16.00;97.70;;;;;;5053787;28;20047;-73
2022/09/04 04:30:09;;;;;;;5.18;1.90;;;16.00;97.80;;;;;;5055192;28;20112;-73
2022/09/04 04:33:07;;;;;;;8.85;2.30;;;16.10;98.30;;;;;;5054870;28;20045;-73
2022/09/04 04:35:40;;;;;;;5.40;2.13;;;16.10;98.40;;;;;;5067481;28;20065;-73
2022/09/04 04:38:31;;;;;;;3.75;1.65;;;16.10;97.90;;;;;;5058199;28;20041;-73
2022/09/04 04:41:23;;;;;;;6.82;2.20;;;16.00;97.80;;;;;;5077424;28;20075;-73
2022/09/04 04:44:14;;;;;;;3.75;1.88;;;16.90;98.60;;;;;;5079781;28;20085;-73
2022/09/04 04:47:02;;;;;;;2.42;1.95;;;16.00;97.90;;;;;;5055487;28;20041;-73
2022/09/04 04:49:49;;;;;;;4.90;2.08;;;16.00;97.80;;;;;;5037131;28;20041;-73
2022/09/04 04:52:17;;;;;;;3.20;1.90;;;16.00;97.90;;;;;;5052949;28;20414;-73
2022/09/04 04:55:05;;;;;;;6.68;2.20;;;15.90;97.70;;;;;;5054146;28;20037;-73
2022/09/04 04:57:52;;;;;;;7.45;2.17;;;15.80;97.90;;;;;;5036403;28;20044;-73
2022/09/04 05:00:31;;;;;;;4.97;2.28;;;16.00;97.90;;;;;;5054226;28;20041;-73
2022/09/04 05:03:17;;;;;;;3.53;2.08;;;15.80;98.50;;;;;;5054314;28;20047;-73
2022/09/04 05:06:00;;;;;;;3.67;2.20;;;15.90;98.10;;;;;;5053820;28;20123;-73
2022/09/04 05:08:44;;;;;;;4.28;1.98;;;16.00;98.40;;;;;;5054053;28;20159;-73
2022/09/04 05:11:16;;;;;;;6.85;2.15;;;16.20;98.50;;;;;;5036254;28;20076;-73
2022/09/04 05:14:08;;;;;;;3.78;1.98;;;16.40;98.60;;;;;;5052876;28;20051;-73
2022/09/04 05:17:05;;;;;;;5.30;2.22;;;16.10;98.00;;;;;;5036344;28;20044;-73
2022/09/04 05:20:02;;;;;;;4.63;2.00;;;16.10;98.10;;;;;;5052276;28;20163;-73
2022/09/04 05:23:01;;;;;;;7.25;2.55;;;16.00;98.00;;;;;;5036428;28;20450;-73
2022/09/04 05:25:34;;;;;;;4.60;2.50;;;16.10;98.00;;;;;;5052691;28;20540;-73
2022/09/04 05:28:25;;;;;;;3.78;2.53;;;16.10;98.40;;;;;;5052923;28;20048;-73
2022/09/04 05:30:50;;;;;;;4.18;2.50;;;16.10;98.50;;;;;;5036539;28;20410;-73
2022/09/04 05:33:50;;;;;;;5.75;2.08;;;16.10;98.20;;;;;;5053955;28;20067;-73
2022/09/04 05:36:36;;;;;;;4.78;2.55;;;16.10;98.00;;;;;;5052810;28;20033;-72
2022/09/04 05:39:23;;;;;;;4.38;2.30;;;16.10;98.50;;;;;;5036110;28;20383;-73
2022/09/04 05:42:31;;;;;;;4.65;2.63;;;16.20;97.90;;;;;;5053764;28;20052;-73
2022/09/04 05:45:19;;;;;;;2.45;2.03;;;16.30;98.00;;;;;;5053523;28;20040;-73
2022/09/04 05:48:05;;;;;;;5.75;2.08;;;16.30;98.10;;;;;;5052506;28;20107;-73
2022/09/04 05:50:52;;;;;;;7.03;2.40;;;16.30;98.00;;;;;;5053417;28;20065;-72
2022/09/04 05:53:46;;;;;;;4.03;2.03;;;16.30;98.10;;;;;;5051941;28;20041;-73
2022/09/04 05:56:14;;;;;;;5.40;2.42;;;16.30;98.00;;;;;;5052230;28;20067;-73
2022/09/04 05:59:08;;;;;;;9.00;2.50;;;17.20;98.70;;;;;;5052097;28;20037;-73
2022/09/04 06:02:10;;;;;;;4.22;1.85;;;16.40;98.10;;;;;;5052435;28;20037;-73
2022/09/04 06:04:57;;;;;;;4.95;1.98;;;16.20;98.20;;;;;;5052089;28;20165;-73
2022/09/04 06:07:30;;;;;;;4.40;2.60;;;16.50;98.10;;;;;;5049274;28;20395;-73
2022/09/04 06:10:04;;;;;;;;;;;16.30;98.50;;;;;;5045354;28;20048;-73
2022/09/04 06:12:38;;;;;;;3.90;1.98;;;16.40;98.20;;;;;;5044616;28;19921;-73
2022/09/04 06:15:16;;;;;;;2.67;2.10;;;16.40;98.70;;;;;;5050911;28;20121;-73
2022/09/04 06:18:15;;;;;;;10.88;2.65;;;16.40;98.20;;;;;;5043425;28;20036;-73
2022/09/04 06:20:56;;;;;;;6.93;2.85;;;16.70;98.30;;;;;;5053046;28;20415;-73
2022/09/04 06:23:21;;;;;;;3.60;2.40;;;16.50;98.40;;;;;;5052033;28;20506;-73
2022/09/04 06:26:43;;;;;;;3.85;2.10;;;16.50;98.40;;;;;;5051318;28;20045;-73
2022/09/04 06:29:38;;;;;;;5.32;2.10;;;16.60;98.30;;;;;;4974087;28;20368;-74
2022/09/04 06:32:41;;;;;;;4.35;2.00;;;16.60;98.10;;;;;;4973796;28;20101;-74
2022/09/04 06:35:31;;;;;;;3.75;2.10;;;16.90;98.40;;;;;;5050825;28;20036;-74
2022/09/04 06:38:31;;;;;;;4.63;2.03;;;17.00;99.00;;;;;;5051205;28;20064;-74
2022/09/04 06:41:28;;;;;;;3.67;2.05;;;16.80;98.20;;;;;;5052123;28;20090;-73
2022/09/04 06:44:02;;;;;;;6.13;2.65;;;16.90;98.20;;;;;;5034952;28;20118;-74
2022/09/04 06:46:37;;;;;;;5.78;2.45;;;16.90;98.20;;;;;;5034646;28;20487;-74
2022/09/04 06:49:25;;;;;;;4.18;2.63;;;16.90;98.60;;;;;;5051960;28;20361;-75
2022/09/04 06:52:06;;;;;;;7.93;2.13;;;17.30;98.10;;;;;;5052341;28;20459;-74
2022/09/04 06:54:50;;;;;;;3.08;2.20;;;17.40;97.80;;;;;;5051499;28;20033;-74
2022/09/04 06:57:46;;;;;;;6.85;2.50;;;17.60;97.90;;;;;;5050124;28;20041;-73
2022/09/04 07:00:14;;;;;;;3.25;1.90;;;17.40;97.80;;;;;;5051575;28;20045;-73
2022/09/04 07:03:17;;;;;;;5.07;2.20;;;17.60;98.10;;;;;;5051780;28;20041;-73
2022/09/04 07:05:52;;;;;;;3.08;2.38;;;17.80;98.00;;;;;;5050602;28;20513;-73
2022/09/04 07:08:28;;;;;;;3.95;2.40;;;17.80;98.50;;;;;;5032490;28;20479;-73
2022/09/04 07:11:09;;;;;;;3.47;2.40;;;18.00;97.90;;;;;;5048497;28;20128;-74
2022/09/04 07:14:03;;;;;;;8.13;2.17;;;17.90;97.80;;;;;;5048565;28;20573;-73
2022/09/04 07:16:44;;;;;;;2.58;2.03;;;18.20;97.90;;;;;;5055010;28;20037;-73
2022/09/04 07:19:24;;;;;;;3.38;2.10;;;18.20;97.70;;;;;;5048760;28;20040;-73
2022/09/04 07:22:28;;;;;;;4.70;2.28;;;19.30;98.40;;;;;;5066851;28;20032;-73
2022/09/04 07:25:03;;;;;;;5.53;3.15;;;18.20;97.80;;;;;;5048823;28;20388;-73
2022/09/04 07:27:43;;;;;;;10.57;2.40;;;18.30;97.60;;;;;;5056321;28;20389;-73
2022/09/04 07:30:12;;;;;;;4.55;2.10;;;18.50;97.50;;;;;;5039112;28;20095;-73
2022/09/04 07:33:09;;;;;;;6.32;2.55;;;18.50;98.00;;;;;;5049546;28;20087;-73
2022/09/04 07:36:06;;;;;;;3.92;2.10;;;18.70;97.60;;;;;;5049535;28;20434;-70
2022/09/04 07:38:59;;;;;;;3.85;2.58;;;18.60;97.50;;;;;;5054810;28;20406;-73
2022/09/04 07:41:33;;;;;;;3.45;2.47;;;18.20;98.00;;;;;;5047628;28;20519;-73
2022/09/04 07:44:08;;;;;;;2.72;2.05;;;19.90;98.10;;;;;;5062140;28;20505;-73
2022/09/04 07:46:45;;;;;;;5.85;2.17;;;19.00;97.80;;;;;;5042148;28;20470;-74
2022/09/04 07:49:46;;;;;;;3.53;2.03;;;19.00;97.40;;;;;;5062217;28;20051;-74
2022/09/04 07:52:43;;;;;;;3.05;2.15;;;19.10;97.60;;;;;;5033098;28;20251;-71
2022/09/04 07:55:34;;;;;;;5.70;2.33;;;19.20;97.50;;;;;;5033901;28;20037;-71
2022/09/04 07:58:03;;;;;;;5.05;2.42;;;19.30;97.50;;;;;;5035591;28;20116;-70
2022/09/04 08:00:41;;;;;;;4.85;2.10;;;19.90;97.90;;;;;;5035513;28;20124;-70
2022/09/04 08:03:48;;;;;;;3.53;2.47;;;19.40;97.60;;;;;;5036630;28;20415;-72
2022/09/04 08:06:14;;;;;;;7.28;2.63;;;19.40;97.30;;;;;;5039529;28;20060;-72
2022/09/04 08:09:10;;;;;;;6.25;2.53;;;19.60;97.60;;;;;;5034547;28;20491;-73
2022/09/04 08:12:07;;;;;;;5.75;2.42;;;19.70;97.20;;;;;;5034287;28;20512;-72
2022/09/04 08:14:54;;;;;;;4.10;2.05;;;20.10;97.50;;;;;;5033607;28;20037;-72
2022/09/04 08:17:45;;;;;;;3.78;2.42;;;20.00;97.10;;;;;;5036247;28;20077;-72
2022/09/04 08:20:41;;;;;;;3.10;2.00;;;19.90;96.90;;;;;;5053176;28;20056;-72
2022/09/04 08:23:30;;;;;;;5.63;2.08;;;20.20;96.90;;;;;;5052661;28;20429;-72
2022/09/04 08:26:13;;;;;;;5.22;2.60;;;20.20;96.90;;;;;;5052662;28;20090;-72
2022/09/04 08:28:55;;;;;;;5.23;2.87;;;20.30;97.00;;;;;;5054836;28;20037;-72
2022/09/04 08:31:36;;;;;;;3.03;1.95;;;20.40;96.60;;;;;;5053968;28;20361;-72
2022/09/04 08:34:26;;;;;;;3.10;2.33;;;20.40;96.70;;;;;;5053785;28;20415;-72
2022/09/04 08:37:14;;;;;;;2.70;1.58;;;20.40;96.70;;;;;;5055311;28;20090;-73
2022/09/04 08:39:51;;;;;;;4.80;2.50;;;20.90;96.70;;;;;;5054235;28;20068;-73
2022/09/04 08:42:57;;;;;;;6.00;2.47;;;20.90;96.50;;;;;;5054901;28;20036;-70
2022/09/04 08:45:31;;;;;;;4.78;2.20;;;20.90;96.50;;;;;;5054229;28;20040;-73
2022/09/04 08:48:31;;;;;;;3.75;2.60;;;20.90;96.70;;;;;;5053195;28;20041;-69
2022/09/04 08:51:15;;;;;;;3.25;1.95;;;21.20;96.50;;;;;;5054569;28;20049;-74
2022/09/04 08:54:29;;;;;;;2.40;1.88;;;21.40;96.40;;;;;;5054287;28;20080;-77
2022/09/04 08:57:14;;;;;;;2.22;1.85;;;21.40;96.30;;;;;;5053321;28;20048;-75
2022/09/04 08:59:48;;;;;;;4.97;2.13;;;21.60;96.50;;;;;;5053229;28;20076;-74
2022/09/04 09:02:55;;;;;;;3.90;2.10;;;22.30;96.90;;;;;;5052668;28;20045;-74
2022/09/04 09:05:44;;;;;;;6.82;2.15;;;21.80;96.20;;;;;;5052037;28;20449;-74
2022/09/04 09:08:46;;;;;;;4.28;2.03;;;21.90;96.20;;;;;;5052910;28;20495;-74
2022/09/04 09:11:25;;;;;;;4.50;2.50;;;22.00;96.10;;;;;;5054391;28;20044;-74
2022/09/04 09:14:13;;;;;;;3.45;2.13;;;21.80;96.10;;;;;;5053673;28;20049;-74
2022/09/04 09:16:42;;;;;;;3.33;2.00;;;21.80;96.30;;;;;;5052788;28;20134;-74
2022/09/04 09:19:28;;;;;;;2.17;1.75;;;22.20;97.00;;;;;;5055224;28;20059;-73
2022/09/04 09:22:23;;;;;;;4.75;2.00;;;22.10;96.10;;;;;;5053900;28;20119;-73
2022/09/04 09:25:19;;;;;;;8.25;2.25;;;22.20;97.00;;;;;;5052288;28;20045;-73
2022/09/04 09:28:06;;;;;;;5.38;2.45;;;22.40;96.20;;;;;;5052709;28;20076;-73
2022/09/04 09:31:01;;;;;;;3.90;1.98;;;22.50;96.20;;;;;;5053369;28;20071;-73
2022/09/04 09:33:48;;;;;;;1.90;1.70;;;22.70;96.20;;;;;;5002067;28;20061;-73
2022/09/04 09:36:51;;;;;;;3.60;1.80;;;22.50;95.80;;;;;;5053558;28;20080;-73
2022/09/04 09:39:50;;;;;;;2.88;1.92;;;22.80;96.20;;;;;;5053330;28;20498;-74
2022/09/04 09:42:54;;;;;;;5.60;1.80;;;22.90;96.20;;;;;;5053634;28;20037;-73
2022/09/04 09:45:43;;;;;;;4.75;1.67;;;23.40;96.20;;;;;;5051594;28;20443;-73
2022/09/04 09:48:49;;;;;;;2.80;1.98;;;23.30;95.30;;;;;;5051993;28;20095;-73
2022/09/04 09:51:42;;;;;;;3.45;1.50;;;23.50;95.30;;;;;;5053331;28;20570;-74
2022/09/04 09:55:02;;;;;;;3.75;1.70;;;23.40;95.40;;;;;;5052981;28;20107;-73
2022/09/04 09:57:46;;;;;;;4.63;1.70;;;23.40;94.90;;;;;;5052029;28;20033;-74
2022/09/04 10:00:18;;;;;;;2.00;1.50;;;23.50;95.70;;;;;;5051882;28;20518;-73
2022/09/04 10:03:16;;;;;;;2.03;1.60;;;23.60;95.20;;;;;;5035351;28;20114;-73
2022/09/04 10:06:11;;;;;;;3.65;1.67;;;23.90;94.90;;;;;;5054838;28;20049;-74
2022/09/04 10:08:52;;;;;;;3.42;2.38;;;24.00;94.80;;;;;;5052850;28;20090;-74
2022/09/04 10:11:27;;;;;;;3.72;1.50;;;23.80;95.10;;;;;;5053320;28;20041;-74
2022/09/04 10:14:17;;;;;;;3.00;1.65;;;24.30;95.70;;;;;;5052595;28;20087;-73
2022/09/04 10:17:02;;;;;;;5.30;2.05;;;25.10;95.40;;;;;;5050792;28;20506;-74
2022/09/04 10:19:30;;;;;;;5.35;1.58;;;23.90;95.30;;;;;;5052606;28;20123;-74
2022/09/04 10:22:19;;;;;;;4.60;2.63;;;24.00;95.00;;;;;;5051644;28;20037;-74
2022/09/04 10:24:53;;;;;;;2.17;1.60;;;24.30;95.30;;;;;;5051126;28;20525;-73
2022/09/04 10:27:30;;;;;;;2.00;1.58;;;24.00;94.60;;;;;;5051338;28;20132;-73
2022/09/04 10:30:06;;;;;;;2.60;1.45;;;24.20;94.40;;;;;;5051224;28;20102;-74
2022/09/04 10:32:31;;;;;;;2.00;1.77;;;23.90;94.70;;;;;;5052547;28;20079;-74
2022/09/04 10:35:28;;;;;;;4.50;2.42;;;24.30;95.00;;;;;;5052218;28;20065;-74
2022/09/04 10:38:15;;;;;;;2.05;1.83;;;24.20;94.40;;;;;;5051028;28;20052;-73
2022/09/04 10:40:59;;;;;;;5.38;1.48;;;24.50;94.60;;;;;;5051379;28;20469;-75
2022/09/04 10:43:44;;;;;;;2.22;1.50;;;24.60;94.20;;;;;;5051372;28;20399;-74
2022/09/04 10:46:19;;;;;;;1.98;1.52;;;24.70;94.30;;;;;;5050971;28;20055;-73
2022/09/04 10:49:00;;;;;;;1.98;1.10;;;24.70;94.50;;;;;;5051141;28;20399;-73
2022/09/04 10:51:38;;;;;;;2.38;1.70;;;24.80;94.10;;;;;;5052330;28;20045;-73
2022/09/04 10:54:15;;;;;;;2.60;1.52;;;24.90;94.00;;;;;;5051770;28;20045;-74
2022/09/04 10:57:03;;;;;;;4.35;1.80;;;24.60;94.00;;;;;;5051115;28;20498;-74
2022/09/04 10:59:42;;;;;;;4.50;1.60;;;25.00;94.00;;;;;;5052433;28;20115;-74
2022/09/04 11:02:32;;;;;;;2.83;1.33;;;25.00;93.90;;;;;;5052157;28;20044;-74
2022/09/04 11:05:30;;;;;;;2.13;1.42;;;25.10;93.90;;;;;;5051719;28;20119;-73
2022/09/04 11:08:37;;;;;;;3.13;1.73;;;25.30;93.70;;;;;;5039430;28;20053;-74
2022/09/04 11:11:45;;;;;;;1.80;1.50;;;25.40;94.30;;;;;;5021870;28;20056;-73
2022/09/04 11:14:28;;;;;;;3.88;1.63;;;25.50;93.90;;;;;;5051818;28;20064;-74
2022/09/04 11:17:12;;;;;;;4.10;1.92;;;25.70;94.40;;;;;;5034049;28;20090;-74
2022/09/04 11:20:21;;;;;;;2.90;1.40;;;25.30;93.90;;;;;;5051224;28;20159;-74
2022/09/04 11:22:47;;;;;;;2.90;1.50;;;25.90;94.10;;;;;;5050326;28;20056;-73
2022/09/04 11:25:27;;;;;;;1.98;1.48;;;25.70;94.00;;;;;;5050172;28;20045;-73
2022/09/04 11:28:43;;;;;;;1.95;1.30;;;25.70;93.60;;;;;;5050245;28;20051;-74
2022/09/04 11:31:20;;;;;;;5.32;1.10;;;25.80;93.70;;;;;;5005891;28;20102;-73
2022/09/04 11:34:13;;;;;;;3.53;1.20;;;25.70;93.60;;;;;;5050267;28;20052;-73
2022/09/04 11:37:18;;;;;;;2.78;1.25;;;25.80;93.70;;;;;;5033836;28;20044;-73
2022/09/04 11:40:08;;;;;;;3.22;1.20;;;26.00;93.70;;;;;;5029168;28;20049;-73
2022/09/04 11:42:55;;;;;;;3.75;1.35;;;26.30;93.90;;;;;;5050353;28;20503;-72
2022/09/04 11:45:42;;;;;;;2.35;1.30;;;26.30;93.90;;;;;;5064851;28;20025;-72
2022/09/04 11:48:48;;;;;;;7.15;1.75;;;27.00;94.70;;;;;;5041807;28;20048;-73
2022/09/04 11:51:38;;;;;;;1.88;1.23;;;26.00;94.10;;;;;;5050699;28;20033;-71
2022/09/04 11:54:29;;;;;;;1.80;1.40;;;26.00;94.00;;;;;;5030912;28;20503;-71
2022/09/04 11:57:13;;;;;;;3.42;1.60;;;25.90;94.10;;;;;;5048989;28;20128;-73
2022/09/04 12:00:04;;;;;;;3.10;1.20;;;26.40;94.90;;;;;;5050130;28;20166;-74
2022/09/04 12:02:46;;;;;;;1.80;1.20;;;25.90;94.30;;;;;;5050023;28;20048;-74
2022/09/04 12:05:45;;;;;;;1.85;1.13;;;25.80;94.00;;;;;;5049294;28;20041;-74
2022/09/04 12:08:20;;;;;;;4.38;1.63;;;25.80;94.20;;;;;;5033200;28;20052;-74
2022/09/04 12:10:54;;;;;;;2.78;1.42;;;26.50;94.90;;;;;;5050702;28;20040;-74
2022/09/04 12:13:26;;;;;;;3.50;1.42;;;26.30;94.60;;;;;;5051359;28;20095;-74
2022/09/04 12:16:01;;;;;;;5.35;2.00;;;26.00;94.10;;;;;;5051073;28;20036;-74
2022/09/04 12:18:57;;;;;;;2.58;1.60;;;26.10;94.10;;;;;;5049707;28;20048;-74
2022/09/04 12:21:47;;;;;;;4.70;1.38;;;26.70;94.40;;;;;;5051600;28;20045;-74
2022/09/04 12:24:46;;;;;;;1.63;1.20;;;27.00;95.00;;;;;;5049624;28;20055;-74
2022/09/04 12:27:41;;;;;;;1.70;1.60;;;26.50;93.80;;;;;;5050329;28;20045;-74
2022/09/04 12:30:19;;;;;;;5.05;2.22;;;26.60;94.70;;;;;;5053727;28;20490;-74
2022/09/04 12:33:19;;;;;;;2.78;1.40;;;26.60;94.50;;;;;;5053828;28;20072;-74
2022/09/04 12:36:20;;;;;;;2.20;1.35;;;26.60;94.50;;;;;;5054657;28;20050;-73
2022/09/04 12:39:11;;;;;;;1.38;1.27;;;26.40;93.90;;;;;;5054876;28;20041;-74
2022/09/04 12:41:48;;;;;;;5.40;1.60;;;26.60;94.30;;;;;;5053709;28;20053;-74
2022/09/04 12:44:52;;;;;;;2.00;1.33;;;26.60;94.20;;;;;;5054528;28;20033;-74
2022/09/04 12:47:36;;;;;;;2.65;1.38;;;26.80;94.00;;;;;;5053548;28;20037;-74
2022/09/04 12:50:26;;;;;;;2.20;1.50;;;27.50;94.70;;;;;;5055274;28;20122;-74
2022/09/04 12:53:04;;;;;;;1.40;1.25;;;26.80;94.00;;;;;;5054332;28;20086;-74
2022/09/04 12:55:57;;;;;;;1.38;1.27;;;27.00;94.40;;;;;;5060045;28;20116;-74
2022/09/04 12:58:51;;;;;;;2.15;1.50;;;27.00;93.90;;;;;;5057336;28;20267;-74
2022/09/04 13:01:27;;;;;;;2.92;1.50;;;27.00;93.50;;;;;;5054757;28;20051;-74
2022/09/04 13:04:13;;;;;;;2.05;1.48;;;26.80;93.50;;;;;;5054677;28;20060;-74
2022/09/04 13:06:55;;;;;;;1.95;1.42;;;26.90;93.60;;;;;;5054461;28;20041;-74
2022/09/04 13:09:47;;;;;;;5.28;1.45;;;27.00;94.30;;;;;;5053316;28;20052;-74
2022/09/04 13:12:12;;;;;;;2.85;1.38;;;26.90;93.50;;;;;;5053751;28;20056;-74
2022/09/04 13:14:56;;;;;;;2.17;1.35;;;28.30;94.60;;;;;;5052488;28;20037;-74
2022/09/04 13:17:47;;;;;;;3.58;1.58;;;27.10;93.70;;;;;;5054226;28;20044;-74
2022/09/04 13:20:43;;;;;;;2.03;1.58;;;27.00;93.80;;;;;;5053023;28;20037;-75
2022/09/04 13:23:23;;;;;;;3.05;1.30;;;26.90;92.90;;;;;;5054722;28;20037;-74
2022/09/04 13:26:23;;;;;;;2.20;1.33;;;26.90;93.20;;;;;;5053580;28;20491;-74
2022/09/04 13:29:15;;;;;;;2.53;1.60;;;26.90;93.30;;;;;;5052699;28;20074;-74
2022/09/04 13:31:59;;;;;;;7.05;1.30;;;26.90;93.10;;;;;;5053988;28;20044;-74
2022/09/04 13:34:39;;;;;;;4.82;1.70;;;26.90;93.60;;;;;;5052124;28;20085;-74
2022/09/04 13:37:22;;;;;;;3.90;1.50;;;27.10;93.40;;;;;;5060488;28;20104;-74
2022/09/04 13:39:59;;;;;;;2.40;1.92;;;27.30;93.80;;;;;;5078924;28;20059;-74
2022/09/04 13:42:32;;;;;;;3.40;1.73;;;27.20;93.00;;;;;;5052501;28;20402;-74
2022/09/04 13:45:04;;;;;;;2.05;1.48;;;27.30;93.70;;;;;;5052217;28;20048;-74
2022/09/04 13:47:48;;;;;;;3.65;1.70;;;27.50;93.60;;;;;;5052142;28;20557;-74
2022/09/04 13:50:38;;;;;;;4.53;1.25;;;27.40;93.40;;;;;;5052136;28;20041;-74
2022/09/04 13:53:15;;;;;;;2.65;1.50;;;27.50;92.80;;;;;;5053393;28;20041;-74
2022/09/04 13:55:48;;;;;;;3.33;1.40;;;27.50;93.00;;;;;;5035127;28;20072;-74
2022/09/04 13:58:18;;;;;;;1.70;1.60;;;28.60;93.60;;;;;;5053189;28;20060;-74
2022/09/04 14:01:10;;;;;;;6.80;1.90;;;27.60;93.10;;;;;;5051927;28;20087;-74
2022/09/04 14:03:50;;;;;;;5.22;1.80;;;27.50;92.60;;;;;;5053263;28;20045;-74
2022/09/04 14:06:19;;;;;;;3.35;1.77;;;27.60;93.10;;;;;;5051754;28;20131;-74
2022/09/04 14:08:47;;;;;;;4.35;1.90;;;27.60;92.80;;;;;;5051969;28;20037;-74
2022/09/04 14:11:41;;;;;;;3.63;1.50;;;28.10;93.00;;;;;;5051344;28;20052;-74
2022/09/04 14:14:47;;;;;;;2.17;1.40;;;27.60;92.50;;;;;;5051542;28;20562;-74
2022/09/04 14:17:15;;;;;;;2.08;1.60;;;27.30;92.30;;;;;;5053062;28;20045;-74
2022/09/04 14:20:13;;;;;;;2.53;1.50;;;27.10;92.90;;;;;;5052855;28;20119;-74
2022/09/04 14:22:54;;;;;;;2.13;1.65;;;27.00;92.70;;;;;;5052077;28;20040;-74
2022/09/04 14:25:53;;;;;;;5.45;2.03;;;27.10;92.60;;;;;;5052958;28;20037;-74